sensor_id;sensor_type;location;lat;lon;timestamp;P1;durP1;ratioP1;P2;durP2;ratioP2
58978;SDS011;44763;50.464;30.612;2023-06-04T01:19:24;1.60;;;0.30;;
58978;SDS011;44763;50.464;30.612;2023-06-04T01:22:28;0.40;;;0.20;;
58978;SDS011;44763;50.464;30.612;2023-06-04T01:25:15;1.90;;;0.30;;
58978;SDS011;44763;50.464;30.612;2023-06-04T01:28:17;1.00;;;0.40;;
58978;SDS011;44763;50.464;30.612;2023-06-04T01:30:48;0.70;;;0.20;;
58978;SDS011;44763;50.464;30.612;2023-06-04T01:33:18;0.30;;;0.30;;
58978;SDS011;44763;50.464;30.612;2023-06-04T01:35:47;1.00;;;0.30;;
58978;SDS011;44763;50.464;30.612;2023-06-04T01:38:14;2.10;;;0.20;;
58978;SDS011;44763;50.464;30.612;2023-06-04T01:40:42;0.90;;;0.30;;
58978;SDS011;44763;50.464;30.612;2023-06-04T01:43:10;0.60;;;0.20;;
58978;SDS011;44763;50.464;30.612;2023-06-04T01:45:37;1.60;;;0.30;;
58978;SDS011;44763;50.464;30.612;2023-06-04T01:48:05;2.90;;;0.80;;
58978;SDS011;44763;50.464;30.612;2023-06-04T01:50:33;1.10;;;0.40;;
58978;SDS011;44763;50.464;30.612;2023-06-04T01:53:00;1.20;;;0.50;;
58978;SDS011;44763;50.464;30.612;2023-06-04T01:55:28;1.70;;;0.20;;
58978;SDS011;44763;50.464;30.612;2023-06-04T01:58:00;0.80;;;0.30;;
58978;SDS011;44763;50.464;30.612;2023-06-04T02:00:28;1.50;;;0.60;;
58978;SDS011;44763;50.464;30.612;2023-06-04T02:02:55;0.70;;;0.30;;
58978;SDS011;44763;50.464;30.612;2023-06-04T02:05:23;0.70;;;0.40;;
58978;SDS011;44763;50.464;30.612;2023-06-04T02:07:51;4.20;;;1.10;;
58978;SDS011;44763;50.464;30.612;2023-06-04T02:10:18;2.40;;;0.50;;
58978;SDS011;44763;50.464;30.612;2023-06-04T02:12:57;3.40;;;0.80;;
58978;SDS011;44763;50.464;30.612;2023-06-04T02:15:33;1.40;;;0.40;;
58978;SDS011;44763;50.464;30.612;2023-06-04T02:18:11;0.60;;;0.40;;
58978;SDS011;44763;50.464;30.612;2023-06-04T02:20:46;1.60;;;0.30;;
58978;SDS011;44763;50.464;30.612;2023-06-04T02:23:16;2.10;;;0.60;;
58978;SDS011;44763;50.464;30.612;2023-06-04T02:25:45;2.80;;;0.90;;
58978;SDS011;44763;50.464;30.612;2023-06-04T02:28:13;7.40;;;1.20;;
58978;SDS011;44763;50.464;30.612;2023-06-04T02:30:41;3.10;;;0.70;;
58978;SDS011;44763;50.464;30.612;2023-06-04T02:33:08;3.20;;;0.80;;
58978;SDS011;44763;50.464;30.612;2023-06-04T02:35:37;1.60;;;0.30;;
58978;SDS011;44763;50.464;30.612;2023-06-04T02:38:05;1.20;;;0.40;;
58978;SDS011;44763;50.464;30.612;2023-06-04T02:40:32;1.40;;;0.30;;
58978;SDS011;44763;50.464;30.612;2023-06-04T02:42:59;3.60;;;0.90;;
58978;SDS011;44763;50.464;30.612;2023-06-04T02:45:27;2.40;;;0.50;;
58978;SDS011;44763;50.464;30.612;2023-06-04T02:47:56;0.70;;;0.30;;
58978;SDS011;44763;50.464;30.612;2023-06-04T02:50:24;1.00;;;0.50;;
58978;SDS011;44763;50.464;30.612;2023-06-04T02:52:51;0.50;;;0.40;;
58978;SDS011;44763;50.464;30.612;2023-06-04T02:55:19;0.90;;;0.30;;
58978;SDS011;44763;50.464;30.612;2023-06-04T02:57:46;0.60;;;0.50;;
58978;SDS011;44763;50.464;30.612;2023-06-04T03:00:14;1.20;;;0.40;;
58978;SDS011;44763;50.464;30.612;2023-06-04T03:02:43;2.40;;;0.50;;
58978;SDS011;44763;50.464;30.612;2023-06-04T03:05:15;0.60;;;0.30;;
58978;SDS011;44763;50.464;30.612;2023-06-04T03:07:46;2.60;;;0.80;;
58978;SDS011;44763;50.464;30.612;2023-06-04T03:10:14;4.00;;;0.40;;
58978;SDS011;44763;50.464;30.612;2023-06-04T03:12:42;2.70;;;0.50;;
58978;SDS011;44763;50.464;30.612;2023-06-04T03:15:10;2.30;;;0.20;;
58978;SDS011;44763;50.464;30.612;2023-06-04T03:17:37;0.70;;;0.50;;
58978;SDS011;44763;50.464;30.612;2023-06-04T03:20:05;0.80;;;0.30;;
58978;SDS011;44763;50.464;30.612;2023-06-04T03:22:34;1.50;;;0.60;;
58978;SDS011;44763;50.464;30.612;2023-06-04T03:25:03;2.00;;;0.50;;
58978;SDS011;44763;50.464;30.612;2023-06-04T03:27:33;1.30;;;0.90;;
58978;SDS011;44763;50.464;30.612;2023-06-04T03:30:01;1.80;;;0.40;;
58978;SDS011;44763;50.464;30.612;2023-06-04T03:32:38;1.10;;;0.30;;
58978;SDS011;44763;50.464;30.612;2023-06-04T03:35:05;3.50;;;0.40;;
58978;SDS011;44763;50.464;30.612;2023-06-04T03:37:33;0.40;;;0.30;;
58978;SDS011;44763;50.464;30.612;2023-06-04T03:40:01;1.90;;;0.50;;
58978;SDS011;44763;50.464;30.612;2023-06-04T03:42:35;4.20;;;0.50;;
58978;SDS011;44763;50.464;30.612;2023-06-04T03:45:03;0.80;;;0.70;;
58978;SDS011;44763;50.464;30.612;2023-06-04T03:47:31;1.30;;;0.80;;
58978;SDS011;44763;50.464;30.612;2023-06-04T03:49:58;2.90;;;1.50;;
58978;SDS011;44763;50.464;30.612;2023-06-04T03:52:26;2.60;;;1.40;;
58978;SDS011;44763;50.464;30.612;2023-06-04T03:54:55;3.00;;;1.80;;
58978;SDS011;44763;50.464;30.612;2023-06-04T03:57:22;3.60;;;1.40;;
58978;SDS011;44763;50.464;30.612;2023-06-04T03:59:50;5.00;;;2.40;;
58978;SDS011;44763;50.464;30.612;2023-06-04T04:02:18;3.80;;;1.50;;
58978;SDS011;44763;50.464;30.612;2023-06-04T04:04:47;2.10;;;1.60;;
58978;SDS011;44763;50.464;30.612;2023-06-04T04:07:15;5.30;;;1.90;;
58978;SDS011;44763;50.464;30.612;2023-06-04T04:09:43;2.60;;;2.10;;
58978;SDS011;44763;50.464;30.612;2023-06-04T04:12:11;1.20;;;0.80;;
58978;SDS011;44763;50.464;30.612;2023-06-04T04:14:39;3.60;;;2.40;;
58978;SDS011;44763;50.464;30.612;2023-06-04T04:17:07;2.50;;;2.30;;
58978;SDS011;44763;50.464;30.612;2023-06-04T04:19:35;5.90;;;2.50;;
58978;SDS011;44763;50.464;30.612;2023-06-04T04:22:03;4.20;;;2.80;;
58978;SDS011;44763;50.464;30.612;2023-06-04T04:24:30;4.60;;;2.60;;
58978;SDS011;44763;50.464;30.612;2023-06-04T04:27:01;5.70;;;2.70;;
58978;SDS011;44763;50.464;30.612;2023-06-04T04:29:31;4.40;;;2.40;;
58978;SDS011;44763;50.464;30.612;2023-06-04T04:32:02;2.20;;;1.90;;
58978;SDS011;44763;50.464;30.612;2023-06-04T04:34:51;2.50;;;1.40;;
58978;SDS011;44763;50.464;30.612;2023-06-04T04:37:24;2.80;;;2.00;;
58978;SDS011;44763;50.464;30.612;2023-06-04T04:39:53;1.60;;;0.80;;
58978;SDS011;44763;50.464;30.612;2023-06-04T04:42:21;0.70;;;0.30;;
58978;SDS011;44763;50.464;30.612;2023-06-04T04:44:49;0.70;;;0.30;;
58978;SDS011;44763;50.464;30.612;2023-06-04T04:47:18;1.70;;;0.70;;
58978;SDS011;44763;50.464;30.612;2023-06-04T04:49:46;1.30;;;0.20;;
58978;SDS011;44763;50.464;30.612;2023-06-04T04:52:16;1.60;;;0.70;;
58978;SDS011;44763;50.464;30.612;2023-06-04T04:54:44;1.70;;;0.30;;
58978;SDS011;44763;50.464;30.612;2023-06-04T04:57:11;0.60;;;0.20;;
58978;SDS011;44763;50.464;30.612;2023-06-04T04:59:42;1.90;;;0.20;;
58978;SDS011;44763;50.464;30.612;2023-06-04T05:02:10;2.20;;;0.20;;
58978;SDS011;44763;50.464;30.612;2023-06-04T05:04:37;0.90;;;0.40;;
58978;SDS011;44763;50.464;30.612;2023-06-04T05:07:05;0.50;;;0.20;;
58978;SDS011;44763;50.464;30.612;2023-06-04T05:09:32;0.50;;;0.20;;
58978;SDS011;44763;50.464;30.612;2023-06-04T05:12:00;1.40;;;0.20;;
58978;SDS011;44763;50.464;30.612;2023-06-04T05:14:29;3.80;;;0.20;;
58978;SDS011;44763;50.464;30.612;2023-06-04T05:16:57;0.50;;;0.10;;
58978;SDS011;44763;50.464;30.612;2023-06-04T05:19:25;0.20;;;0.10;;
58978;SDS011;44763;50.464;30.612;2023-06-04T05:21:52;1.10;;;0.10;;
58978;SDS011;44763;50.464;30.612;2023-06-04T05:24:21;8.00;;;0.20;;
58978;SDS011;44763;50.464;30.612;2023-06-04T05:26:48;1.20;;;0.10;;
58978;SDS011;44763;50.464;30.612;2023-06-04T05:29:18;0.40;;;0.10;;
58978;SDS011;44763;50.464;30.612;2023-06-04T05:31:46;1.30;;;0.10;;
58978;SDS011;44763;50.464;30.612;2023-06-04T05:34:14;2.90;;;0.10;;
58978;SDS011;44763;50.464;30.612;2023-06-04T05:36:43;4.70;;;0.30;;
58978;SDS011;44763;50.464;30.612;2023-06-04T05:39:11;0.30;;;0.10;;
58978;SDS011;44763;50.464;30.612;2023-06-04T05:42:11;3.30;;;0.10;;
58978;SDS011;44763;50.464;30.612;2023-06-04T05:44:39;1.50;;;0.10;;
58978;SDS011;44763;50.464;30.612;2023-06-04T05:47:07;2.50;;;0.10;;
58978;SDS011;44763;50.464;30.612;2023-06-04T05:49:35;2.20;;;0.10;;
58978;SDS011;44763;50.464;30.612;2023-06-04T05:52:02;0.50;;;0.10;;
58978;SDS011;44763;50.464;30.612;2023-06-04T05:54:30;2.80;;;0.10;;
58978;SDS011;44763;50.464;30.612;2023-06-04T05:56:58;1.70;;;0.10;;
58978;SDS011;44763;50.464;30.612;2023-06-04T05:59:25;0.80;;;0.20;;
58978;SDS011;44763;50.464;30.612;2023-06-04T06:01:53;0.10;;;0.00;;
58978;SDS011;44763;50.464;30.612;2023-06-04T06:04:21;2.30;;;0.00;;
58978;SDS011;44763;50.464;30.612;2023-06-04T06:06:49;0.80;;;0.00;;
58978;SDS011;44763;50.464;30.612;2023-06-04T06:09:16;0.10;;;0.00;;
58978;SDS011;44763;50.464;30.612;2023-06-04T06:11:44;3.30;;;0.10;;
58978;SDS011;44763;50.464;30.612;2023-06-04T06:14:11;2.00;;;0.10;;
58978;SDS011;44763;50.464;30.612;2023-06-04T06:16:39;0.20;;;0.00;;
58978;SDS011;44763;50.464;30.612;2023-06-04T06:19:07;0.40;;;0.00;;
58978;SDS011;44763;50.464;30.612;2023-06-04T06:21:35;0.00;;;0.00;;
58978;SDS011;44763;50.464;30.612;2023-06-04T06:24:03;2.70;;;0.00;;
58978;SDS011;44763;50.464;30.612;2023-06-04T06:26:31;0.10;;;0.00;;
58978;SDS011;44763;50.464;30.612;2023-06-04T06:29:00;0.60;;;0.00;;
58978;SDS011;44763;50.464;30.612;2023-06-04T06:31:28;0.40;;;0.00;;
58978;SDS011;44763;50.464;30.612;2023-06-04T06:33:56;0.30;;;0.10;;
58978;SDS011;44763;50.464;30.612;2023-06-04T06:36:23;0.00;;;0.00;;
58978;SDS011;44763;50.464;30.612;2023-06-04T06:38:50;1.70;;;0.10;;
58978;SDS011;44763;50.464;30.612;2023-06-04T06:41:19;0.50;;;0.00;;
58978;SDS011;44763;50.464;30.612;2023-06-04T06:43:47;0.10;;;0.00;;
58978;SDS011;44763;50.464;30.612;2023-06-04T06:46:14;0.50;;;0.10;;
58978;SDS011;44763;50.464;30.612;2023-06-04T06:48:42;0.60;;;0.00;;
58978;SDS011;44763;50.464;30.612;2023-06-04T06:51:12;1.90;;;0.00;;
58978;SDS011;44763;50.464;30.612;2023-06-04T06:53:40;0.20;;;0.00;;
58978;SDS011;44763;50.464;30.612;2023-06-04T06:56:07;4.90;;;0.30;;
58978;SDS011;44763;50.464;30.612;2023-06-04T06:58:34;0.20;;;0.00;;
58978;SDS011;44763;50.464;30.612;2023-06-04T07:01:02;0.80;;;0.00;;
58978;SDS011;44763;50.464;30.612;2023-06-04T07:03:33;0.20;;;0.00;;
58978;SDS011;44763;50.464;30.612;2023-06-04T07:06:02;0.30;;;0.00;;
58978;SDS011;44763;50.464;30.612;2023-06-04T07:08:29;0.80;;;0.00;;
58978;SDS011;44763;50.464;30.612;2023-06-04T07:10:57;1.70;;;0.00;;
58978;SDS011;44763;50.464;30.612;2023-06-04T07:13:29;0.40;;;0.10;;
58978;SDS011;44763;50.464;30.612;2023-06-04T07:15:59;1.20;;;0.00;;
58978;SDS011;44763;50.464;30.612;2023-06-04T07:18:27;1.80;;;0.00;;
58978;SDS011;44763;50.464;30.612;2023-06-04T07:20:54;2.60;;;0.20;;
58978;SDS011;44763;50.464;30.612;2023-06-04T07:23:24;3.10;;;0.20;;
58978;SDS011;44763;50.464;30.612;2023-06-04T07:25:52;2.90;;;0.00;;
58978;SDS011;44763;50.464;30.612;2023-06-04T07:28:19;0.60;;;0.10;;
58978;SDS011;44763;50.464;30.612;2023-06-04T07:30:46;1.90;;;0.00;;
58978;SDS011;44763;50.464;30.612;2023-06-04T07:33:14;0.90;;;0.00;;
58978;SDS011;44763;50.464;30.612;2023-06-04T07:35:41;1.10;;;0.00;;
58978;SDS011;44763;50.464;30.612;2023-06-04T07:38:09;0.10;;;0.00;;
58978;SDS011;44763;50.464;30.612;2023-06-04T07:40:36;0.50;;;0.00;;
58978;SDS011;44763;50.464;30.612;2023-06-04T07:43:03;0.10;;;0.00;;
58978;SDS011;44763;50.464;30.612;2023-06-04T07:45:31;1.00;;;0.10;;
58978;SDS011;44763;50.464;30.612;2023-06-04T07:48:02;1.50;;;0.10;;
58978;SDS011;44763;50.464;30.612;2023-06-04T07:50:30;1.40;;;0.00;;
58978;SDS011;44763;50.464;30.612;2023-06-04T07:53:01;0.10;;;0.00;;
58978;SDS011;44763;50.464;30.612;2023-06-04T07:55:29;0.10;;;0.00;;
58978;SDS011;44763;50.464;30.612;2023-06-04T07:57:56;0.50;;;0.00;;
58978;SDS011;44763;50.464;30.612;2023-06-04T08:00:23;0.10;;;0.10;;
58978;SDS011;44763;50.464;30.612;2023-06-04T08:02:54;1.90;;;0.10;;
58978;SDS011;44763;50.464;30.612;2023-06-04T08:05:21;0.90;;;0.00;;
58978;SDS011;44763;50.464;30.612;2023-06-04T08:07:50;0.30;;;0.10;;
58978;SDS011;44763;50.464;30.612;2023-06-04T08:10:17;2.50;;;0.10;;
58978;SDS011;44763;50.464;30.612;2023-06-04T08:12:45;0.30;;;0.10;;
58978;SDS011;44763;50.464;30.612;2023-06-04T08:15:12;0.30;;;0.00;;
58978;SDS011;44763;50.464;30.612;2023-06-04T08:17:40;0.60;;;0.00;;
58978;SDS011;44763;50.464;30.612;2023-06-04T08:20:07;1.00;;;0.10;;
58978;SDS011;44763;50.464;30.612;2023-06-04T08:22:38;2.30;;;0.10;;
58978;SDS011;44763;50.464;30.612;2023-06-04T08:25:06;1.00;;;0.10;;
58978;SDS011;44763;50.464;30.612;2023-06-04T08:27:34;0.40;;;0.00;;
58978;SDS011;44763;50.464;30.612;2023-06-04T08:30:01;0.10;;;0.00;;
58978;SDS011;44763;50.464;30.612;2023-06-04T08:32:29;0.40;;;0.10;;
58978;SDS011;44763;50.464;30.612;2023-06-04T08:34:57;0.20;;;0.10;;
58978;SDS011;44763;50.464;30.612;2023-06-04T08:37:25;2.40;;;0.00;;
58978;SDS011;44763;50.464;30.612;2023-06-04T08:39:52;1.30;;;0.10;;
58978;SDS011;44763;50.464;30.612;2023-06-04T08:42:27;0.80;;;0.00;;
58978;SDS011;44763;50.464;30.612;2023-06-04T08:44:58;3.00;;;0.10;;
58978;SDS011;44763;50.464;30.612;2023-06-04T08:47:25;0.90;;;0.00;;
58978;SDS011;44763;50.464;30.612;2023-06-04T08:49:54;0.40;;;0.00;;
58978;SDS011;44763;50.464;30.612;2023-06-04T08:52:26;0.10;;;0.00;;
58978;SDS011;44763;50.464;30.612;2023-06-04T08:54:54;0.10;;;0.00;;
58978;SDS011;44763;50.464;30.612;2023-06-04T08:57:23;0.30;;;0.00;;
58978;SDS011;44763;50.464;30.612;2023-06-04T08:59:51;0.10;;;0.00;;
58978;SDS011;44763;50.464;30.612;2023-06-04T09:02:18;0.60;;;0.00;;
58978;SDS011;44763;50.464;30.612;2023-06-04T09:04:46;2.20;;;0.00;;
58978;SDS011;44763;50.464;30.612;2023-06-04T09:07:13;1.20;;;0.10;;
58978;SDS011;44763;50.464;30.612;2023-06-04T09:09:42;0.10;;;0.00;;
58978;SDS011;44763;50.464;30.612;2023-06-04T09:12:24;0.20;;;0.10;;
58978;SDS011;44763;50.464;30.612;2023-06-04T09:14:52;1.80;;;0.20;;
58978;SDS011;44763;50.464;30.612;2023-06-04T09:17:23;1.10;;;0.50;;
58978;SDS011;44763;50.464;30.612;2023-06-04T09:19:51;0.30;;;0.10;;
58978;SDS011;44763;50.464;30.612;2023-06-04T09:22:18;1.70;;;0.10;;
58978;SDS011;44763;50.464;30.612;2023-06-04T09:24:46;0.40;;;0.10;;
58978;SDS011;44763;50.464;30.612;2023-06-04T09:27:18;0.10;;;0.00;;
58978;SDS011;44763;50.464;30.612;2023-06-04T09:29:50;5.40;;;0.60;;
58978;SDS011;44763;50.464;30.612;2023-06-04T09:32:26;3.20;;;0.10;;
58978;SDS011;44763;50.464;30.612;2023-06-04T09:34:56;1.30;;;0.60;;
58978;SDS011;44763;50.464;30.612;2023-06-04T09:37:40;3.10;;;0.20;;
58978;SDS011;44763;50.464;30.612;2023-06-04T09:40:08;0.30;;;0.10;;
58978;SDS011;44763;50.464;30.612;2023-06-04T09:42:43;2.60;;;0.10;;
58978;SDS011;44763;50.464;30.612;2023-06-04T09:45:12;0.10;;;0.00;;
58978;SDS011;44763;50.464;30.612;2023-06-04T09:47:42;0.50;;;0.20;;
58978;SDS011;44763;50.464;30.612;2023-06-04T09:50:11;0.40;;;0.10;;
58978;SDS011;44763;50.464;30.612;2023-06-04T09:52:39;0.30;;;0.10;;
58978;SDS011;44763;50.464;30.612;2023-06-04T09:55:18;0.50;;;0.20;;
58978;SDS011;44763;50.464;30.612;2023-06-04T09:57:47;0.80;;;0.10;;
58978;SDS011;44763;50.464;30.612;2023-06-04T10:00:19;1.20;;;0.20;;
58978;SDS011;44763;50.464;30.612;2023-06-04T10:02:48;0.50;;;0.10;;
58978;SDS011;44763;50.464;30.612;2023-06-04T10:05:16;0.50;;;0.10;;
58978;SDS011;44763;50.464;30.612;2023-06-04T10:07:49;0.10;;;0.10;;
58978;SDS011;44763;50.464;30.612;2023-06-04T10:10:20;1.10;;;0.20;;
58978;SDS011;44763;50.464;30.612;2023-06-04T10:12:50;0.70;;;0.30;;
58978;SDS011;44763;50.464;30.612;2023-06-04T10:15:28;3.10;;;0.00;;
58978;SDS011;44763;50.464;30.612;2023-06-04T10:17:56;0.60;;;0.00;;
58978;SDS011;44763;50.464;30.612;2023-06-04T10:20:24;0.40;;;0.00;;
58978;SDS011;44763;50.464;30.612;2023-06-04T10:22:51;0.60;;;0.00;;
58978;SDS011;44763;50.464;30.612;2023-06-04T10:25:19;0.40;;;0.10;;
58978;SDS011;44763;50.464;30.612;2023-06-04T10:27:47;0.20;;;0.00;;
58978;SDS011;44763;50.464;30.612;2023-06-04T10:30:17;0.20;;;0.10;;
58978;SDS011;44763;50.464;30.612;2023-06-04T10:32:44;0.20;;;0.10;;
58978;SDS011;44763;50.464;30.612;2023-06-04T10:35:13;0.80;;;0.10;;
58978;SDS011;44763;50.464;30.612;2023-06-04T10:37:42;0.80;;;0.00;;
58978;SDS011;44763;50.464;30.612;2023-06-04T10:40:10;1.00;;;0.10;;
58978;SDS011;44763;50.464;30.612;2023-06-04T10:42:41;0.60;;;0.10;;
58978;SDS011;44763;50.464;30.612;2023-06-04T10:45:10;1.40;;;0.10;;
58978;SDS011;44763;50.464;30.612;2023-06-04T10:47:37;0.10;;;0.10;;
58978;SDS011;44763;50.464;30.612;2023-06-04T10:50:09;0.00;;;0.00;;
58978;SDS011;44763;50.464;30.612;2023-06-04T10:52:38;0.70;;;0.10;;
58978;SDS011;44763;50.464;30.612;2023-06-04T10:55:18;0.30;;;0.10;;
58978;SDS011;44763;50.464;30.612;2023-06-04T11:00:44;0.10;;;0.10;;
58978;SDS011;44763;50.464;30.612;2023-06-04T11:03:16;0.60;;;0.10;;
58978;SDS011;44763;50.464;30.612;2023-06-04T11:05:47;0.40;;;0.10;;
58978;SDS011;44763;50.464;30.612;2023-06-04T11:08:25;2.10;;;0.10;;
58978;SDS011;44763;50.464;30.612;2023-06-04T11:10:57;0.40;;;0.20;;
58978;SDS011;44763;50.464;30.612;2023-06-04T11:13:24;0.60;;;0.10;;
58978;SDS011;44763;50.464;30.612;2023-06-04T11:15:55;1.00;;;0.30;;
58978;SDS011;44763;50.464;30.612;2023-06-04T11:18:23;0.20;;;0.10;;
58978;SDS011;44763;50.464;30.612;2023-06-04T11:21:00;2.30;;;0.00;;
58978;SDS011;44763;50.464;30.612;2023-06-04T11:23:32;0.40;;;0.00;;
58978;SDS011;44763;50.464;30.612;2023-06-04T11:26:00;0.50;;;0.10;;
58978;SDS011;44763;50.464;30.612;2023-06-04T11:28:28;0.20;;;0.10;;
58978;SDS011;44763;50.464;30.612;2023-06-04T11:31:04;1.00;;;0.10;;
58978;SDS011;44763;50.464;30.612;2023-06-04T11:33:44;0.20;;;0.10;;
58978;SDS011;44763;50.464;30.612;2023-06-04T11:38:55;0.10;;;0.00;;
58978;SDS011;44763;50.464;30.612;2023-06-04T11:41:28;0.70;;;0.10;;
58978;SDS011;44763;50.464;30.612;2023-06-04T11:43:57;0.10;;;0.10;;
58978;SDS011;44763;50.464;30.612;2023-06-04T11:46:28;0.70;;;0.20;;
58978;SDS011;44763;50.464;30.612;2023-06-04T11:48:55;0.20;;;0.10;;
58978;SDS011;44763;50.464;30.612;2023-06-04T11:51:23;3.30;;;0.20;;
58978;SDS011;44763;50.464;30.612;2023-06-04T11:53:51;0.50;;;0.10;;
58978;SDS011;44763;50.464;30.612;2023-06-04T11:56:19;0.60;;;0.10;;
58978;SDS011;44763;50.464;30.612;2023-06-04T11:58:46;1.40;;;0.10;;
58978;SDS011;44763;50.464;30.612;2023-06-04T12:01:14;0.20;;;0.10;;
58978;SDS011;44763;50.464;30.612;2023-06-04T12:03:42;0.70;;;0.20;;
58978;SDS011;44763;50.464;30.612;2023-06-04T12:08:48;0.30;;;0.10;;
58978;SDS011;44763;50.464;30.612;2023-06-04T12:11:30;0.20;;;0.10;;
58978;SDS011;44763;50.464;30.612;2023-06-04T12:13:59;0.50;;;0.10;;
58978;SDS011;44763;50.464;30.612;2023-06-04T12:16:32;0.80;;;0.10;;
58978;SDS011;44763;50.464;30.612;2023-06-04T12:19:04;0.30;;;0.10;;
58978;SDS011;44763;50.464;30.612;2023-06-04T12:21:35;0.40;;;0.10;;
58978;SDS011;44763;50.464;30.612;2023-06-04T12:24:06;2.80;;;0.20;;
58978;SDS011;44763;50.464;30.612;2023-06-04T12:26:35;0.20;;;0.20;;
58978;SDS011;44763;50.464;30.612;2023-06-04T12:29:11;1.00;;;0.10;;
58978;SDS011;44763;50.464;30.612;2023-06-04T12:31:43;1.20;;;0.20;;
58978;SDS011;44763;50.464;30.612;2023-06-04T12:34:15;0.30;;;0.10;;
58978;SDS011;44763;50.464;30.612;2023-06-04T12:36:44;0.20;;;0.10;;
58978;SDS011;44763;50.464;30.612;2023-06-04T12:39:11;1.80;;;0.10;;
58978;SDS011;44763;50.464;30.612;2023-06-04T12:41:39;0.70;;;0.20;;
58978;SDS011;44763;50.464;30.612;2023-06-04T12:44:12;2.90;;;0.10;;
58978;SDS011;44763;50.464;30.612;2023-06-04T12:46:39;0.90;;;0.20;;
58978;SDS011;44763;50.464;30.612;2023-06-04T12:49:07;0.50;;;0.10;;
58978;SDS011;44763;50.464;30.612;2023-06-04T12:51:34;0.30;;;0.10;;
58978;SDS011;44763;50.464;30.612;2023-06-04T12:54:02;1.80;;;0.20;;
58978;SDS011;44763;50.464;30.612;2023-06-04T12:56:29;1.80;;;0.30;;
58978;SDS011;44763;50.464;30.612;2023-06-04T12:58:57;0.80;;;0.50;;
58978;SDS011;44763;50.464;30.612;2023-06-04T13:01:24;0.30;;;0.10;;
58978;SDS011;44763;50.464;30.612;2023-06-04T13:03:54;0.10;;;0.10;;
58978;SDS011;44763;50.464;30.612;2023-06-04T13:06:22;1.70;;;0.10;;
58978;SDS011;44763;50.464;30.612;2023-06-04T13:08:50;0.90;;;0.30;;
58978;SDS011;44763;50.464;30.612;2023-06-04T13:11:18;0.40;;;0.10;;
58978;SDS011;44763;50.464;30.612;2023-06-04T13:13:45;0.30;;;0.10;;
58978;SDS011;44763;50.464;30.612;2023-06-04T13:16:12;1.30;;;0.20;;
58978;SDS011;44763;50.464;30.612;2023-06-04T13:18:40;0.40;;;0.10;;
58978;SDS011;44763;50.464;30.612;2023-06-04T13:21:07;2.80;;;0.10;;
58978;SDS011;44763;50.464;30.612;2023-06-04T13:23:35;1.50;;;0.20;;
58978;SDS011;44763;50.464;30.612;2023-06-04T13:26:17;0.30;;;0.20;;
58978;SDS011;44763;50.464;30.612;2023-06-04T13:28:45;0.80;;;0.40;;
58978;SDS011;44763;50.464;30.612;2023-06-04T13:31:13;1.10;;;0.20;;
58978;SDS011;44763;50.464;30.612;2023-06-04T13:35:48;0.60;;;0.20;;
58978;SDS011;44763;50.464;30.612;2023-06-04T13:38:17;1.20;;;0.10;;
58978;SDS011;44763;50.464;30.612;2023-06-04T13:40:45;1.00;;;0.10;;
58978;SDS011;44763;50.464;30.612;2023-06-04T13:43:12;0.70;;;0.20;;
58978;SDS011;44763;50.464;30.612;2023-06-04T13:45:40;0.90;;;0.10;;
58978;SDS011;44763;50.464;30.612;2023-06-04T13:48:07;0.40;;;0.10;;
58978;SDS011;44763;50.464;30.612;2023-06-04T13:50:35;0.50;;;0.10;;
58978;SDS011;44763;50.464;30.612;2023-06-04T13:53:03;0.20;;;0.10;;
58978;SDS011;44763;50.464;30.612;2023-06-04T13:55:30;0.50;;;0.10;;
58978;SDS011;44763;50.464;30.612;2023-06-04T13:57:57;3.30;;;0.10;;
58978;SDS011;44763;50.464;30.612;2023-06-04T14:00:25;1.10;;;0.40;;
58978;SDS011;44763;50.464;30.612;2023-06-04T14:02:53;0.20;;;0.10;;
58978;SDS011;44763;50.464;30.612;2023-06-04T14:05:22;1.30;;;0.50;;
58978;SDS011;44763;50.464;30.612;2023-06-04T14:07:52;4.30;;;0.20;;
58978;SDS011;44763;50.464;30.612;2023-06-04T14:10:21;1.90;;;0.10;;
58978;SDS011;44763;50.464;30.612;2023-06-04T14:12:48;2.00;;;0.70;;
58978;SDS011;44763;50.464;30.612;2023-06-04T14:15:16;1.30;;;0.20;;
58978;SDS011;44763;50.464;30.612;2023-06-04T14:17:44;1.00;;;0.10;;
58978;SDS011;44763;50.464;30.612;2023-06-04T14:20:11;0.20;;;0.10;;
58978;SDS011;44763;50.464;30.612;2023-06-04T14:22:39;0.20;;;0.10;;
58978;SDS011;44763;50.464;30.612;2023-06-04T14:25:06;1.00;;;0.10;;
58978;SDS011;44763;50.464;30.612;2023-06-04T14:27:34;0.70;;;0.40;;
58978;SDS011;44763;50.464;30.612;2023-06-04T14:30:03;0.20;;;0.10;;
58978;SDS011;44763;50.464;30.612;2023-06-04T14:32:31;1.80;;;0.10;;
58978;SDS011;44763;50.464;30.612;2023-06-04T14:35:01;0.50;;;0.20;;
58978;SDS011;44763;50.464;30.612;2023-06-04T14:37:28;1.40;;;0.20;;
58978;SDS011;44763;50.464;30.612;2023-06-04T14:39:55;1.40;;;0.30;;
58978;SDS011;44763;50.464;30.612;2023-06-04T14:42:23;1.00;;;0.10;;
58978;SDS011;44763;50.464;30.612;2023-06-04T14:44:50;4.00;;;0.30;;
58978;SDS011;44763;50.464;30.612;2023-06-04T14:47:17;0.30;;;0.10;;
58978;SDS011;44763;50.464;30.612;2023-06-04T14:49:45;0.50;;;0.10;;
58978;SDS011;44763;50.464;30.612;2023-06-04T14:52:12;1.10;;;0.10;;
58978;SDS011;44763;50.464;30.612;2023-06-04T14:54:40;1.00;;;0.20;;
58978;SDS011;44763;50.464;30.612;2023-06-04T14:57:07;0.30;;;0.10;;
58978;SDS011;44763;50.464;30.612;2023-06-04T14:59:35;0.50;;;0.20;;
58978;SDS011;44763;50.464;30.612;2023-06-04T15:02:03;0.30;;;0.10;;
58978;SDS011;44763;50.464;30.612;2023-06-04T15:04:30;0.80;;;0.30;;
58978;SDS011;44763;50.464;30.612;2023-06-04T15:06:58;0.30;;;0.10;;
58978;SDS011;44763;50.464;30.612;2023-06-04T15:09:25;1.60;;;0.10;;
58978;SDS011;44763;50.464;30.612;2023-06-04T15:11:52;0.90;;;0.10;;
58978;SDS011;44763;50.464;30.612;2023-06-04T15:14:20;1.60;;;0.10;;
58978;SDS011;44763;50.464;30.612;2023-06-04T15:16:47;1.40;;;0.20;;
58978;SDS011;44763;50.464;30.612;2023-06-04T15:19:15;0.20;;;0.10;;
58978;SDS011;44763;50.464;30.612;2023-06-04T15:21:42;0.60;;;0.30;;
58978;SDS011;44763;50.464;30.612;2023-06-04T15:24:10;0.60;;;0.10;;
58978;SDS011;44763;50.464;30.612;2023-06-04T15:26:38;0.80;;;0.10;;
58978;SDS011;44763;50.464;30.612;2023-06-04T15:29:05;1.20;;;0.20;;
58978;SDS011;44763;50.464;30.612;2023-06-04T15:31:35;0.70;;;0.10;;
58978;SDS011;44763;50.464;30.612;2023-06-04T15:34:02;0.70;;;0.20;;
58978;SDS011;44763;50.464;30.612;2023-06-04T15:36:29;0.10;;;0.10;;
58978;SDS011;44763;50.464;30.612;2023-06-04T15:38:57;0.60;;;0.10;;
58978;SDS011;44763;50.464;30.612;2023-06-04T15:41:24;0.90;;;0.10;;
58978;SDS011;44763;50.464;30.612;2023-06-04T15:43:52;0.30;;;0.10;;
58978;SDS011;44763;50.464;30.612;2023-06-04T15:46:23;0.10;;;0.00;;
58978;SDS011;44763;50.464;30.612;2023-06-04T15:48:54;0.40;;;0.20;;
58978;SDS011;44763;50.464;30.612;2023-06-04T15:51:21;3.60;;;0.10;;
58978;SDS011;44763;50.464;30.612;2023-06-04T15:53:48;0.20;;;0.10;;
58978;SDS011;44763;50.464;30.612;2023-06-04T15:56:16;1.80;;;0.10;;
58978;SDS011;44763;50.464;30.612;2023-06-04T15:58:43;0.20;;;0.10;;
58978;SDS011;44763;50.464;30.612;2023-06-04T16:01:10;0.20;;;0.20;;
58978;SDS011;44763;50.464;30.612;2023-06-04T16:03:38;1.00;;;0.10;;
58978;SDS011;44763;50.464;30.612;2023-06-04T16:06:06;1.40;;;0.30;;
58978;SDS011;44763;50.464;30.612;2023-06-04T16:08:34;2.00;;;0.20;;
58978;SDS011;44763;50.464;30.612;2023-06-04T16:11:02;2.20;;;0.10;;
58978;SDS011;44763;50.464;30.612;2023-06-04T16:13:29;0.80;;;0.10;;